Time;durP1;ratioP1;P1;durP2;ratioP2;P2;SDS_P1;SDS_P2;PMS_P1;PMS_P2;Temp;Humidity;BMP_temperature;BMP_pressure;BME280_temperature;BME280_humidity;BME280_pressure;Samples;Min_cycle;Max_cycle;Signal;HPM_P1;HPM_P2
2023/06/18 00:01:02;;;;;;;14.75;10.07;;;19.20;95.20;;;;;;5061398;28;20052;-57
2023/06/18 00:03:28;;;;;;;15.55;10.25;;;19.10;95.20;;;;;;5062585;28;20104;-56
2023/06/18 00:05:54;;;;;;;18.38;10.27;;;19.10;95.40;;;;;;5077485;28;20037;-57
2023/06/18 00:08:22;;;;;;;13.35;10.13;;;19.10;95.60;;;;;;5076521;28;20044;-56
2023/06/18 00:10:48;;;;;;;16.35;9.90;;;19.10;95.60;;;;;;5072700;28;20036;-57
2023/06/18 00:13:15;;;;;;;16.30;10.90;;;19.10;95.80;;;;;;5070646;28;20060;-57
2023/06/18 00:15:40;;;;;;;15.23;10.23;;;19.00;95.90;;;;;;5059898;28;20041;-56
2023/06/18 00:18:06;;;;;;;15.32;10.43;;;18.90;96.10;;;;;;5070021;28;20057;-56
2023/06/18 00:20:34;;;;;;;16.55;10.75;;;18.90;96.40;;;;;;5071527;28;20059;-56
2023/06/18 00:23:00;;;;;;;13.25;10.07;;;18.80;96.70;;;;;;5070620;28;20078;-56
2023/06/18 00:25:26;;;;;;;17.45;11.32;;;18.70;96.90;;;;;;5062679;28;20127;-59
2023/06/18 00:27:52;;;;;;;14.48;11.30;;;18.70;97.10;;;;;;5072706;28;20036;-59
2023/06/18 00:30:18;;;;;;;13.15;10.65;;;18.70;97.30;;;;;;5074433;28;20103;-59
2023/06/18 00:32:44;;;;;;;13.82;10.73;;;18.60;97.50;;;;;;5073267;28;20044;-59
2023/06/18 00:35:17;;;;;;;16.02;11.23;;;18.60;97.70;;;;;;5078956;28;20040;-58
2023/06/18 00:37:43;;;;;;;14.90;11.57;;;18.60;98.00;;;;;;5067353;28;20463;-58
2023/06/18 00:40:14;;;;;;;17.27;12.10;;;18.60;98.20;;;;;;5078723;28;20049;-58
2023/06/18 00:42:40;;;;;;;16.45;11.23;;;18.50;98.40;;;;;;5072993;28;20040;-57
2023/06/18 00:45:11;;;;;;;17.30;12.05;;;18.50;98.60;;;;;;5075139;28;20099;-56
2023/06/18 00:47:44;;;;;;;16.27;11.82;;;18.50;98.80;;;;;;5078965;28;20071;-58
2023/06/18 00:50:15;;;;;;;18.58;12.18;;;18.40;99.00;;;;;;5067638;28;20334;-58
2023/06/18 00:52:47;;;;;;;15.18;11.77;;;18.30;99.20;;;;;;5068124;28;20147;-57
2023/06/18 00:55:17;;;;;;;18.45;12.95;;;18.30;99.50;;;;;;5069557;28;20037;-57
2023/06/18 00:57:49;;;;;;;16.40;12.35;;;18.30;99.70;;;;;;5079212;28;20489;-57
2023/06/18 01:00:17;;;;;;;18.77;12.73;;;18.20;99.90;;;;;;5076033;28;20139;-57
2023/06/18 01:02:45;;;;;;;18.20;11.95;;;18.20;99.90;;;;;;5078588;28;20068;-58
2023/06/18 01:05:14;;;;;;;17.80;12.18;;;18.10;99.90;;;;;;5078622;28;20052;-56
2023/06/18 01:07:47;;;;;;;17.80;12.60;;;18.10;99.90;;;;;;5061288;28;20040;-57
2023/06/18 01:10:14;;;;;;;18.17;12.30;;;18.10;99.90;;;;;;5059416;28;20045;-57
2023/06/18 01:12:42;;;;;;;15.40;11.88;;;18.00;99.90;;;;;;5058334;28;20497;-60
2023/06/18 01:15:10;;;;;;;19.15;12.68;;;18.00;99.90;;;;;;5075315;28;20051;-57
2023/06/18 01:17:37;;;;;;;16.48;12.75;;;18.00;99.90;;;;;;5076272;28;20528;-56
2023/06/18 01:20:11;;;;;;;17.75;12.75;;;17.90;99.90;;;;;;5077364;28;20431;-57
2023/06/18 01:23:02;;;;;;;18.73;13.32;;;17.90;99.90;;;;;;5063481;28;20041;-57
2023/06/18 01:25:32;;;;;;;19.17;12.75;;;17.80;99.90;;;;;;5062395;28;20041;-57
2023/06/18 01:28:07;;;;;;;18.13;13.30;;;17.80;99.90;;;;;;5062117;28;20068;-58
2023/06/18 01:30:36;;;;;;;17.80;13.15;;;17.80;99.90;;;;;;5069878;28;20111;-57
2023/06/18 01:33:03;;;;;;;20.17;14.27;;;17.80;99.90;;;;;;5074887;28;20051;-57
2023/06/18 01:35:29;;;;;;;20.10;13.48;;;17.80;99.90;;;;;;5067342;28;20095;-57
2023/06/18 01:37:55;;;;;;;19.30;14.43;;;17.80;99.90;;;;;;5058348;28;20041;-57
2023/06/18 01:40:39;;;;;;;16.73;13.73;;;17.70;99.90;;;;;;5058921;28;20045;-57
2023/06/18 01:43:11;;;;;;;17.98;14.38;;;17.70;99.90;;;;;;5059969;28;20388;-57
2023/06/18 01:45:41;;;;;;;20.38;14.75;;;17.70;99.90;;;;;;5078710;28;20047;-57
2023/06/18 01:48:08;;;;;;;21.15;15.07;;;17.60;99.90;;;;;;5079022;28;20044;-56
2023/06/18 01:50:37;;;;;;;20.15;15.38;;;17.50;99.90;;;;;;5078416;28;20088;-56
2023/06/18 01:53:04;;;;;;;20.17;14.27;;;17.50;99.90;;;;;;5078188;28;20051;-57
2023/06/18 01:55:33;;;;;;;20.02;14.80;;;17.40;99.90;;;;;;5076961;28;20045;-56
2023/06/18 01:57:59;;;;;;;22.60;15.27;;;17.40;99.90;;;;;;5078605;28;20044;-56
2023/06/18 02:00:25;;;;;;;21.45;15.25;;;17.40;99.90;;;;;;5077574;28;20044;-56
2023/06/18 02:02:51;;;;;;;22.48;15.55;;;17.30;99.90;;;;;;5068446;28;20760;-56
2023/06/18 02:05:18;;;;;;;21.30;15.20;;;17.30;99.90;;;;;;5067608;28;20048;-55
2023/06/18 02:07:44;;;;;;;20.45;15.50;;;17.30;99.90;;;;;;5074039;28;20047;-57
2023/06/18 02:10:10;;;;;;;21.42;16.40;;;17.20;99.90;;;;;;5071476;28;20037;-57
2023/06/18 02:12:35;;;;;;;22.08;15.93;;;17.20;99.90;;;;;;5055209;28;20055;-55
2023/06/18 02:15:01;;;;;;;21.50;15.52;;;17.10;99.90;;;;;;5058075;28;20079;-57
2023/06/18 02:17:28;;;;;;;20.95;15.52;;;17.10;99.90;;;;;;5060952;28;20192;-57
2023/06/18 02:19:54;;;;;;;23.17;16.40;;;17.10;99.90;;;;;;5075468;28;20533;-57
2023/06/18 02:22:22;;;;;;;22.33;15.90;;;17.00;99.90;;;;;;5066120;28;20101;-57
2023/06/18 02:24:48;;;;;;;22.98;16.45;;;17.00;99.90;;;;;;5076366;28;20040;-57
2023/06/18 02:27:14;;;;;;;21.70;15.48;;;17.00;99.90;;;;;;5077146;28;20101;-57
2023/06/18 02:29:41;;;;;;;22.42;16.88;;;16.80;99.90;;;;;;5076426;28;20049;-57
2023/06/18 02:32:07;;;;;;;22.05;16.52;;;17.10;99.90;;;;;;5072723;28;20048;-57
2023/06/18 02:34:34;;;;;;;22.08;16.60;;;17.00;99.90;;;;;;5060272;28;20052;-57
2023/06/18 02:37:00;;;;;;;20.20;15.85;;;17.00;99.90;;;;;;5076962;28;20100;-56
2023/06/18 02:39:25;;;;;;;22.17;16.60;;;17.00;99.90;;;;;;5062600;28;20519;-56
2023/06/18 02:41:51;;;;;;;23.08;16.73;;;17.00;99.90;;;;;;5071649;28;20044;-56
2023/06/18 02:44:17;;;;;;;25.98;16.17;;;16.90;99.90;;;;;;5066604;28;20040;-56
2023/06/18 02:46:42;;;;;;;24.25;16.23;;;16.90;99.90;;;;;;5079018;28;20028;-57
2023/06/18 02:49:08;;;;;;;21.73;16.25;;;16.90;99.90;;;;;;5077597;28;20094;-56
2023/06/18 02:51:34;;;;;;;21.13;16.30;;;16.90;99.90;;;;;;5076633;28;20044;-56
2023/06/18 02:54:00;;;;;;;25.75;17.17;;;16.80;99.90;;;;;;5080333;28;20036;-57
2023/06/18 02:56:28;;;;;;;22.88;16.75;;;16.90;99.90;;;;;;5079819;28;20071;-57
2023/06/18 02:58:56;;;;;;;24.35;16.63;;;16.80;99.90;;;;;;5080968;28;20045;-57
2023/06/18 03:01:24;;;;;;;25.33;17.45;;;16.80;99.90;;;;;;5081387;28;20396;-56
2023/06/18 03:03:51;;;;;;;22.83;17.42;;;16.80;99.90;;;;;;5080290;28;20068;-58
2023/06/18 03:06:16;;;;;;;25.98;16.65;;;16.70;99.90;;;;;;5077219;28;20072;-56
2023/06/18 03:08:42;;;;;;;23.05;16.45;;;16.70;99.90;;;;;;5063113;28;20040;-57
2023/06/18 03:11:08;;;;;;;22.38;16.25;;;16.60;99.90;;;;;;5070470;28;20088;-57
2023/06/18 03:13:34;;;;;;;22.50;17.38;;;16.60;99.90;;;;;;5068081;28;20567;-57
2023/06/18 03:16:00;;;;;;;24.33;18.23;;;16.50;99.90;;;;;;5060594;28;20049;-55
2023/06/18 03:18:25;;;;;;;28.08;17.38;;;16.50;99.90;;;;;;5075686;28;20051;-57
2023/06/18 03:20:51;;;;;;;24.92;18.42;;;16.50;99.90;;;;;;5077119;28;20048;-57
2023/06/18 03:23:17;;;;;;;26.33;18.58;;;16.50;99.90;;;;;;5079215;28;20037;-57
2023/06/18 03:25:43;;;;;;;24.42;18.15;;;16.40;99.90;;;;;;5074374;28;20057;-57
2023/06/18 03:28:08;;;;;;;26.85;18.88;;;16.40;99.90;;;;;;5075672;28;20041;-56
2023/06/18 03:30:34;;;;;;;25.30;17.92;;;16.40;99.90;;;;;;5080494;28;20064;-57
2023/06/18 03:33:02;;;;;;;26.35;19.40;;;16.40;99.90;;;;;;5071137;28;20078;-57
2023/06/18 03:35:28;;;;;;;26.17;18.35;;;16.40;99.90;;;;;;5081192;28;20040;-57
2023/06/18 03:37:54;;;;;;;25.77;18.80;;;16.30;99.90;;;;;;5080185;28;20059;-57
2023/06/18 03:40:20;;;;;;;25.27;17.92;;;16.30;99.90;;;;;;5080921;28;20045;-56
2023/06/18 03:42:46;;;;;;;26.83;19.20;;;16.30;99.90;;;;;;5080323;28;20044;-56
2023/06/18 03:45:11;;;;;;;26.65;18.15;;;16.30;99.90;;;;;;5078159;28;20037;-56
2023/06/18 03:47:37;;;;;;;25.42;18.52;;;16.30;99.90;;;;;;5079175;28;20045;-57
2023/06/18 03:50:03;;;;;;;22.25;17.23;;;16.40;99.90;;;;;;5080415;28;20033;-56
2023/06/18 03:52:29;;;;;;;23.27;17.60;;;16.40;99.90;;;;;;5079991;28;20040;-57
2023/06/18 03:54:54;;;;;;;23.42;17.40;;;16.40;99.90;;;;;;5078625;28;20096;-57
2023/06/18 03:57:20;;;;;;;25.88;17.77;;;16.00;99.90;;;;;;5076308;28;20055;-57
2023/06/18 03:59:51;;;;;;;25.33;17.63;;;16.50;99.90;;;;;;5060753;28;20032;-56
2023/06/18 04:02:17;;;;;;;28.98;18.48;;;16.60;99.90;;;;;;5068248;28;20474;-57
2023/06/18 04:04:44;;;;;;;25.23;17.60;;;16.60;99.90;;;;;;5079434;28;20048;-56
2023/06/18 04:07:10;;;;;;;24.98;17.88;;;16.60;99.90;;;;;;5075863;28;20104;-56
2023/06/18 04:09:36;;;;;;;25.23;17.80;;;16.60;99.90;;;;;;5069063;28;20048;-57
2023/06/18 04:12:02;;;;;;;22.48;17.27;;;16.60;99.90;;;;;;5079131;28;20047;-57
2023/06/18 04:14:27;;;;;;;25.95;18.92;;;16.60;99.90;;;;;;5079920;28;20504;-57
2023/06/18 04:16:53;;;;;;;25.55;18.38;;;16.70;99.90;;;;;;5073952;28;20069;-56
2023/06/18 04:19:19;;;;;;;25.00;19.48;;;16.70;99.90;;;;;;5064778;28;20082;-56
2023/06/18 04:21:44;;;;;;;25.90;18.27;;;16.70;99.90;;;;;;5077902;28;20052;-56
2023/06/18 04:24:10;;;;;;;24.08;17.55;;;16.70;99.90;;;;;;5078092;28;20048;-57
2023/06/18 04:26:36;;;;;;;24.45;18.80;;;16.70;99.90;;;;;;5072126;28;20037;-56
2023/06/18 04:29:02;;;;;;;25.08;18.23;;;16.80;99.90;;;;;;5075705;28;20060;-57
2023/06/18 04:31:27;;;;;;;26.45;19.02;;;16.80;99.90;;;;;;5067320;28;20033;-57
2023/06/18 04:33:53;;;;;;;27.98;18.20;;;16.80;99.90;;;;;;5066325;28;20039;-56
2023/06/18 04:36:19;;;;;;;28.13;19.08;;;16.90;99.90;;;;;;5070544;28;20382;-56
2023/06/18 04:38:44;;;;;;;27.38;19.13;;;16.90;99.90;;;;;;5059381;28;20048;-56
2023/06/18 04:41:10;;;;;;;27.50;18.67;;;16.90;99.90;;;;;;5059532;28;20048;-56
2023/06/18 04:43:36;;;;;;;25.85;18.25;;;16.90;99.90;;;;;;5059847;28;20045;-56
2023/06/18 04:46:02;;;;;;;25.75;18.35;;;16.90;99.90;;;;;;5073790;28;20044;-57
2023/06/18 04:48:27;;;;;;;24.55;18.05;;;16.90;99.90;;;;;;5079308;28;20374;-57
2023/06/18 04:50:53;;;;;;;28.80;18.77;;;16.90;99.90;;;;;;5077320;28;20048;-57
2023/06/18 04:53:19;;;;;;;27.40;18.38;;;17.00;99.90;;;;;;5078745;28;20048;-56
2023/06/18 04:55:44;;;;;;;28.00;18.90;;;17.00;99.90;;;;;;5078569;28;20104;-57
2023/06/18 04:58:11;;;;;;;26.25;18.52;;;17.00;99.90;;;;;;5074881;28;20067;-57
2023/06/18 05:00:37;;;;;;;23.70;17.50;;;17.10;99.90;;;;;;5068731;28;20094;-57
2023/06/18 05:03:04;;;;;;;24.20;18.30;;;17.10;99.90;;;;;;5059778;28;20037;-57
2023/06/18 05:05:30;;;;;;;27.13;18.10;;;17.20;99.90;;;;;;5070278;28;20033;-56
2023/06/18 05:07:56;;;;;;;24.95;17.92;;;17.30;99.90;;;;;;5077574;28;20412;-56
2023/06/18 05:10:22;;;;;;;28.50;19.33;;;17.40;99.90;;;;;;5058571;28;20049;-56
2023/06/18 05:12:48;;;;;;;25.55;18.02;;;17.50;99.90;;;;;;5067306;28;20072;-56
2023/06/18 05:15:14;;;;;;;26.95;19.25;;;17.50;99.90;;;;;;5066099;28;20526;-56
2023/06/18 05:17:39;;;;;;;25.05;17.30;;;17.60;99.90;;;;;;5075390;28;20067;-57
2023/06/18 05:20:06;;;;;;;27.65;18.45;;;17.60;99.90;;;;;;5076321;28;20045;-57
2023/06/18 05:22:33;;;;;;;26.38;18.80;;;17.70;99.90;;;;;;5066860;28;20076;-57
2023/06/18 05:24:59;;;;;;;26.67;18.58;;;17.70;99.90;;;;;;5059849;28;20049;-57
2023/06/18 05:27:28;;;;;;;25.50;18.42;;;17.70;99.90;;;;;;5058771;28;20037;-57
2023/06/18 05:29:56;;;;;;;26.45;18.35;;;17.70;99.90;;;;;;5061890;28;20032;-57
2023/06/18 05:32:22;;;;;;;29.40;19.90;;;17.80;99.90;;;;;;5066051;28;20048;-57
2023/06/18 05:34:48;;;;;;;27.02;18.92;;;17.80;99.90;;;;;;5077684;28;20037;-57
2023/06/18 05:37:14;;;;;;;24.88;17.73;;;17.80;99.90;;;;;;5078522;28;20036;-56
2023/06/18 05:39:40;;;;;;;26.15;18.45;;;17.90;99.90;;;;;;5062834;28;20037;-56
2023/06/18 05:42:06;;;;;;;27.23;19.23;;;17.90;99.90;;;;;;5057545;28;20044;-57
2023/06/18 05:44:32;;;;;;;27.90;17.40;;;18.00;99.90;;;;;;5074724;28;20052;-57
2023/06/18 05:46:58;;;;;;;25.67;18.58;;;18.00;99.90;;;;;;5078432;28;20083;-56
2023/06/18 05:49:26;;;;;;;27.35;19.15;;;18.10;99.90;;;;;;5070237;28;20033;-55
2023/06/18 05:51:52;;;;;;;24.30;17.90;;;18.10;99.90;;;;;;5078658;28;20044;-57
2023/06/18 05:54:18;;;;;;;28.27;19.80;;;18.10;99.90;;;;;;5077869;28;20500;-57
2023/06/18 05:56:44;;;;;;;25.92;18.80;;;18.20;99.90;;;;;;5058463;28;20045;-56
2023/06/18 05:59:10;;;;;;;27.77;20.05;;;18.20;99.90;;;;;;5057784;28;20045;-56
2023/06/18 06:01:36;;;;;;;26.48;18.95;;;18.30;99.90;;;;;;5057946;28;20044;-57
2023/06/18 06:04:03;;;;;;;27.13;19.02;;;18.30;99.90;;;;;;5059564;28;20037;-57
2023/06/18 06:06:29;;;;;;;31.15;21.10;;;18.30;99.90;;;;;;5062002;28;20037;-56
2023/06/18 06:08:55;;;;;;;27.08;19.38;;;18.40;99.90;;;;;;5063384;28;20044;-56
2023/06/18 06:11:21;;;;;;;27.75;19.83;;;18.50;99.90;;;;;;5075368;28;20102;-56
2023/06/18 06:13:47;;;;;;;28.05;18.63;;;18.60;99.90;;;;;;5058787;28;20109;-56
2023/06/18 06:16:12;;;;;;;25.92;19.15;;;18.70;99.90;;;;;;5061278;28;20041;-57
2023/06/18 06:18:38;;;;;;;26.95;19.13;;;18.80;99.90;;;;;;5061281;28;20044;-58
2023/06/18 06:21:04;;;;;;;32.15;21.33;;;18.90;99.90;;;;;;5064392;28;20051;-57
2023/06/18 06:23:33;;;;;;;27.95;19.40;;;19.00;99.90;;;;;;5075748;28;20083;-57
2023/06/18 06:25:58;;;;;;;26.60;19.17;;;19.20;99.90;;;;;;5079993;28;20092;-57
2023/06/18 06:28:24;;;;;;;25.75;18.75;;;19.40;99.90;;;;;;5061571;28;20040;-56
2023/06/18 06:30:50;;;;;;;25.23;18.30;;;19.50;99.90;;;;;;5067657;28;20052;-56
2023/06/18 06:33:16;;;;;;;29.38;19.77;;;19.70;99.90;;;;;;5079678;28;20052;-57
2023/06/18 06:35:41;;;;;;;32.17;19.52;;;19.90;99.90;;;;;;5066133;28;20479;-57
2023/06/18 06:38:07;;;;;;;28.17;19.35;;;20.10;99.90;;;;;;5069579;28;20113;-56
2023/06/18 06:40:33;;;;;;;25.90;19.08;;;20.10;99.90;;;;;;5061238;28;20079;-56
2023/06/18 06:42:58;;;;;;;30.23;20.05;;;20.00;99.90;;;;;;5067230;28;20033;-57
2023/06/18 06:45:25;;;;;;;25.55;18.42;;;20.00;99.90;;;;;;5062965;28;20032;-57
2023/06/18 06:47:50;;;;;;;27.00;18.20;;;20.00;99.90;;;;;;5072402;28;20490;-57
2023/06/18 06:50:16;;;;;;;24.98;18.55;;;20.00;99.90;;;;;;5062194;28;20048;-58
2023/06/18 06:52:42;;;;;;;25.00;18.52;;;19.90;99.90;;;;;;5065673;28;20041;-56
2023/06/18 06:55:08;;;;;;;23.90;18.38;;;20.00;99.90;;;;;;5068981;28;20108;-57
2023/06/18 06:57:34;;;;;;;27.13;20.35;;;20.10;99.90;;;;;;5066211;28;20070;-57
2023/06/18 06:59:59;;;;;;;26.25;19.63;;;20.30;99.90;;;;;;5059422;28;20141;-57
2023/06/18 07:02:25;;;;;;;29.83;19.90;;;20.50;99.90;;;;;;5062899;28;20048;-57
2023/06/18 07:04:51;;;;;;;28.33;19.00;;;20.60;99.90;;;;;;5080820;28;20110;-57
2023/06/18 07:07:17;;;;;;;29.02;19.27;;;20.70;99.90;;;;;;5074452;28;20056;-57
2023/06/18 07:09:43;;;;;;;25.83;18.50;;;20.80;99.90;;;;;;5060452;28;20037;-57
2023/06/18 07:12:09;;;;;;;23.67;18.33;;;20.90;99.90;;;;;;5061602;28;20922;-56
2023/06/18 07:14:37;;;;;;;25.17;18.40;;;20.90;99.90;;;;;;5064048;28;20073;-57
2023/06/18 07:17:03;;;;;;;24.98;17.90;;;21.10;99.90;;;;;;5080455;28;20051;-57
2023/06/18 07:19:29;;;;;;;23.98;18.20;;;21.30;99.90;;;;;;5041630;28;20052;-57
2023/06/18 07:21:55;;;;;;;26.63;18.35;;;21.30;99.90;;;;;;5055181;28;20041;-56
2023/06/18 07:24:21;;;;;;;24.95;17.02;;;21.40;99.90;;;;;;5060625;28;20045;-57
2023/06/18 07:26:46;;;;;;;21.10;16.70;;;21.40;99.90;;;;;;5067741;28;20029;-58
2023/06/18 07:29:12;;;;;;;23.20;16.52;;;21.50;99.90;;;;;;5064444;28;20045;-56
2023/06/18 07:31:38;;;;;;;21.35;16.10;;;21.50;99.90;;;;;;5067961;28;20047;-56
2023/06/18 07:34:04;;;;;;;21.50;15.77;;;21.60;99.90;;;;;;5076231;28;20037;-56
2023/06/18 07:36:30;;;;;;;21.67;16.55;;;21.80;99.90;;;;;;5068723;28;20432;-57
2023/06/18 07:38:58;;;;;;;21.05;15.38;;;22.00;99.90;;;;;;5072700;28;20066;-57
2023/06/18 07:41:24;;;;;;;24.15;14.80;;;22.10;99.90;;;;;;5064657;28;20417;-57
2023/06/18 07:43:49;;;;;;;21.58;15.43;;;22.20;99.90;;;;;;5061294;28;20041;-57
2023/06/18 07:46:15;;;;;;;23.92;16.55;;;22.20;99.90;;;;;;5060506;28;20109;-58
2023/06/18 07:48:41;;;;;;;23.80;16.35;;;22.20;99.90;;;;;;5069388;28;20052;-58
2023/06/18 07:51:06;;;;;;;23.02;16.13;;;22.20;99.90;;;;;;5060244;28;20638;-57
2023/06/18 07:53:32;;;;;;;21.58;16.23;;;22.20;99.90;;;;;;5059921;28;20037;-57
2023/06/18 07:55:59;;;;;;;22.13;15.52;;;22.30;99.90;;;;;;5062183;28;20043;-58
2023/06/18 07:58:25;;;;;;;18.67;14.63;;;22.30;99.90;;;;;;5060169;28;20040;-57
2023/06/18 08:00:51;;;;;;;21.50;16.23;;;22.40;99.90;;;;;;5060060;28;20044;-57
2023/06/18 08:03:17;;;;;;;20.42;15.73;;;22.30;99.90;;;;;;5059126;28;20048;-57
2023/06/18 08:05:42;;;;;;;22.25;15.43;;;22.50;99.90;;;;;;5074357;28;20041;-57
2023/06/18 08:08:08;;;;;;;24.17;16.98;;;22.50;99.90;;;;;;5062822;28;20036;-57
2023/06/18 08:10:34;;;;;;;22.85;15.80;;;22.60;99.90;;;;;;5064006;28;20036;-57
2023/06/18 08:12:59;;;;;;;21.80;15.35;;;22.60;99.90;;;;;;5075299;28;20098;-57
2023/06/18 08:15:25;;;;;;;22.08;15.65;;;22.70;99.90;;;;;;5077989;28;20104;-57
2023/06/18 08:17:52;;;;;;;22.90;16.27;;;22.80;99.90;;;;;;5069273;28;20105;-58
2023/06/18 08:20:18;;;;;;;20.88;15.23;;;22.90;99.90;;;;;;5059572;28;20041;-57
2023/06/18 08:22:44;;;;;;;21.83;15.02;;;22.90;99.90;;;;;;5065441;28;20074;-58
2023/06/18 08:25:10;;;;;;;23.90;15.00;;;23.00;99.90;;;;;;5078540;28;20079;-56
2023/06/18 08:27:36;;;;;;;16.83;13.63;;;23.10;99.90;;;;;;5067977;28;20128;-57
2023/06/18 08:30:06;;;;;;;21.13;14.70;;;23.20;99.90;;;;;;5058791;28;20053;-58
2023/06/18 08:32:32;;;;;;;20.05;13.68;;;23.30;99.90;;;;;;5061984;28;20041;-57
2023/06/18 08:34:57;;;;;;;20.88;13.75;;;23.40;99.90;;;;;;5063918;28;20504;-57
2023/06/18 08:37:23;;;;;;;19.52;13.25;;;23.50;99.90;;;;;;5063197;28;20090;-57
2023/06/18 08:39:49;;;;;;;18.05;13.52;;;23.60;99.90;;;;;;5074617;28;20037;-57
2023/06/18 08:42:17;;;;;;;17.73;12.98;;;23.70;99.90;;;;;;5077698;28;20083;-57
2023/06/18 08:44:45;;;;;;;19.73;12.55;;;23.80;99.90;;;;;;5076707;28;20048;-57
2023/06/18 08:47:12;;;;;;;17.27;13.02;;;24.00;99.90;;;;;;5067122;28;20036;-58
2023/06/18 08:49:41;;;;;;;22.77;12.88;;;24.10;99.90;;;;;;5072436;28;20086;-58
2023/06/18 08:52:08;;;;;;;18.65;13.05;;;24.30;99.90;;;;;;5059203;28;20056;-57
2023/06/18 08:54:36;;;;;;;16.95;12.55;;;24.40;99.90;;;;;;5062576;28;20047;-58
2023/06/18 08:57:19;;;;;;;17.27;12.18;;;24.50;99.90;;;;;;5062138;28;20048;-58
2023/06/18 08:59:46;;;;;;;17.27;11.63;;;24.50;99.90;;;;;;5066104;28;20051;-55
2023/06/18 09:02:13;;;;;;;15.77;10.80;;;24.40;99.90;;;;;;5061717;28;20045;-59
2023/06/18 09:04:39;;;;;;;15.95;12.00;;;24.60;99.90;;;;;;5071049;28;20045;-57
2023/06/18 09:07:06;;;;;;;15.90;10.98;;;24.70;99.90;;;;;;5049867;28;20041;-57
2023/06/18 09:09:32;;;;;;;14.85;10.23;;;24.80;99.90;;;;;;5077158;28;20037;-56
2023/06/18 09:11:58;;;;;;;15.27;10.27;;;25.00;99.90;;;;;;5069571;28;20512;-57
2023/06/18 09:14:24;;;;;;;12.80;9.90;;;25.20;99.90;;;;;;5058789;28;20124;-57
2023/06/18 09:16:52;;;;;;;19.40;10.65;;;25.20;99.90;;;;;;5078689;28;20049;-57
2023/06/18 09:19:19;;;;;;;14.70;10.50;;;25.30;99.90;;;;;;5078858;28;20071;-58
2023/06/18 09:21:45;;;;;;;15.40;10.18;;;25.40;99.90;;;;;;5078800;28;20072;-57
2023/06/18 09:24:22;;;;;;;11.73;8.57;;;25.50;99.80;;;;;;5076107;28;20041;-57
2023/06/18 09:26:58;;;;;;;10.38;8.10;;;25.50;98.70;;;;;;5078684;28;20054;-57
2023/06/18 09:29:28;;;;;;;13.02;9.02;;;25.70;98.20;;;;;;5074986;28;20054;-57
2023/06/18 09:31:54;;;;;;;12.27;9.23;;;25.70;98.10;;;;;;5062684;28;20079;-57
2023/06/18 09:34:20;;;;;;;13.00;9.82;;;25.80;98.00;;;;;;5058844;28;20041;-57
2023/06/18 09:36:48;;;;;;;10.82;8.48;;;25.80;97.50;;;;;;5067325;28;20091;-57
2023/06/18 09:39:22;;;;;;;12.57;8.93;;;26.00;97.60;;;;;;5074795;28;20060;-57
2023/06/18 09:41:49;;;;;;;10.00;8.05;;;26.20;97.50;;;;;;5064187;28;20036;-57
2023/06/18 09:44:16;;;;;;;11.43;8.68;;;26.30;96.80;;;;;;5077579;28;20106;-58
2023/06/18 09:46:46;;;;;;;11.65;8.23;;;26.30;96.80;;;;;;5069138;28;20440;-57
2023/06/18 09:49:20;;;;;;;11.98;8.55;;;26.40;96.50;;;;;;5072633;28;20059;-57
2023/06/18 09:51:48;;;;;;;12.45;8.43;;;26.40;95.70;;;;;;5061886;28;20044;-57
2023/06/18 09:54:14;;;;;;;10.50;8.68;;;26.40;95.80;;;;;;5068482;28;20044;-58
2023/06/18 09:56:58;;;;;;;13.20;8.07;;;26.40;95.10;;;;;;5070026;28;20048;-57
2023/06/18 09:59:24;;;;;;;11.25;8.35;;;26.40;95.10;;;;;;5082520;28;20071;-58
2023/06/18 10:01:50;;;;;;;15.45;9.68;;;26.40;95.10;;;;;;5074262;28;20049;-57
2023/06/18 10:04:19;;;;;;;10.27;8.52;;;26.40;94.50;;;;;;5065282;28;20449;-57
2023/06/18 10:06:56;;;;;;;10.13;8.18;;;26.40;94.70;;;;;;5082069;28;20040;-57
2023/06/18 10:09:24;;;;;;;10.15;8.18;;;26.40;94.40;;;;;;5082745;28;20040;-57
2023/06/18 10:11:53;;;;;;;11.10;8.32;;;26.50;94.40;;;;;;5079161;28;20129;-57
2023/06/18 10:14:24;;;;;;;11.57;8.65;;;26.50;93.40;;;;;;5082806;28;20384;-57
2023/06/18 10:16:52;;;;;;;10.77;8.15;;;26.40;93.60;;;;;;5078327;28;20583;-57
2023/06/18 10:19:17;;;;;;;10.95;8.02;;;26.50;93.60;;;;;;5061814;28;20087;-57
2023/06/18 10:22:03;;;;;;;10.00;7.25;;;26.50;93.60;;;;;;5068236;28;20095;-57
2023/06/18 10:24:29;;;;;;;;;;;26.60;93.50;;;;;;5077430;28;20060;-57
2023/06/18 10:26:55;;;;;;;11.10;7.90;;;26.60;93.20;;;;;;5081995;28;19920;-58
2023/06/18 10:29:22;;;;;;;12.43;7.72;;;26.70;93.40;;;;;;5081616;28;20493;-57
2023/06/18 10:31:49;;;;;;;10.70;7.30;;;26.80;93.60;;;;;;5081775;28;20037;-57
2023/06/18 10:34:15;;;;;;;7.75;6.93;;;26.90;93.70;;;;;;5080833;28;20065;-57
2023/06/18 10:36:41;;;;;;;9.45;7.47;;;27.00;92.50;;;;;;5081750;28;20044;-57
2023/06/18 10:39:07;;;;;;;8.73;7.03;;;27.10;91.60;;;;;;5082238;28;20045;-57
2023/06/18 10:41:34;;;;;;;9.75;7.35;;;27.20;90.70;;;;;;5077366;28;20040;-57
2023/06/18 10:44:00;;;;;;;10.30;7.50;;;27.30;90.40;;;;;;5075640;28;20037;-57
2023/06/18 10:46:26;;;;;;;7.68;6.97;;;27.40;89.20;;;;;;5078486;28;20124;-57
2023/06/18 10:49:19;;;;;;;11.32;7.00;;;27.40;90.10;;;;;;5080956;28;20045;-57
2023/06/18 10:52:12;;;;;;;12.05;7.15;;;27.40;90.00;;;;;;5073268;28;20037;-57
2023/06/18 10:54:38;;;;;;;8.80;7.00;;;27.50;89.40;;;;;;5061043;28;20036;-57
2023/06/18 10:57:04;;;;;;;11.07;7.35;;;27.50;89.30;;;;;;5062202;28;20044;-58
2023/06/18 10:59:43;;;;;;;11.57;7.15;;;27.50;89.40;;;;;;5060833;28;20037;-57
2023/06/18 11:02:11;;;;;;;8.05;6.90;;;27.60;89.50;;;;;;5061381;28;20053;-56
2023/06/18 11:04:37;;;;;;;9.73;7.18;;;27.70;90.00;;;;;;5075512;28;20116;-57
2023/06/18 11:07:26;;;;;;;10.95;7.78;;;27.80;89.50;;;;;;5070524;28;20660;-57
2023/06/18 11:09:57;;;;;;;8.82;7.15;;;27.90;88.80;;;;;;5061408;28;20444;-58
2023/06/18 11:12:35;;;;;;;10.73;7.80;;;28.00;89.10;;;;;;5064563;28;20039;-58
2023/06/18 11:15:13;;;;;;;11.25;7.75;;;28.00;88.00;;;;;;5061061;28;20057;-57
2023/06/18 11:17:40;;;;;;;10.57;7.50;;;28.00;88.40;;;;;;5062608;28;20766;-57
2023/06/18 11:20:06;;;;;;;12.20;8.05;;;28.10;87.60;;;;;;5080457;28;20037;-58
2023/06/18 11:22:34;;;;;;;10.50;7.07;;;28.10;87.30;;;;;;5076511;28;20033;-58
2023/06/18 11:25:00;;;;;;;8.60;7.70;;;28.20;87.10;;;;;;5080531;28;20075;-57
2023/06/18 11:27:27;;;;;;;10.60;7.68;;;28.10;86.60;;;;;;5080801;28;20037;-58
2023/06/18 11:29:56;;;;;;;11.27;7.80;;;28.20;85.80;;;;;;5079500;28;20058;-57
2023/06/18 11:32:23;;;;;;;9.23;7.63;;;28.20;85.90;;;;;;5077216;28;20096;-57
2023/06/18 11:34:50;;;;;;;9.40;7.15;;;28.30;86.00;;;;;;5060984;28;20432;-57
2023/06/18 11:37:16;;;;;;;8.25;7.03;;;28.30;85.40;;;;;;5072293;28;20056;-58
2023/06/18 11:39:42;;;;;;;7.93;7.13;;;28.40;84.70;;;;;;5065333;28;20032;-58
2023/06/18 11:42:12;;;;;;;8.43;6.68;;;28.50;83.80;;;;;;5064480;28;20455;-58
2023/06/18 11:44:53;;;;;;;11.57;7.88;;;28.60;84.10;;;;;;5076094;28;20060;-57
2023/06/18 11:47:20;;;;;;;9.30;6.40;;;28.70;83.60;;;;;;5080630;28;20104;-58
2023/06/18 11:49:50;;;;;;;11.05;6.65;;;28.70;82.80;;;;;;5067763;28;20084;-57
2023/06/18 11:52:18;;;;;;;7.20;6.35;;;28.80;82.20;;;;;;5074228;28;20048;-58
2023/06/18 11:54:45;;;;;;;11.63;6.72;;;28.90;82.20;;;;;;5076173;28;20088;-59
2023/06/18 11:57:12;;;;;;;8.27;7.13;;;28.90;82.00;;;;;;5060768;28;20167;-58
2023/06/18 11:59:42;;;;;;;9.20;7.03;;;28.90;79.80;;;;;;5064231;28;20123;-58
2023/06/18 12:02:16;;;;;;;8.90;6.55;;;28.90;78.80;;;;;;5069739;28;20041;-58
2023/06/18 12:04:43;;;;;;;10.25;6.55;;;28.90;76.10;;;;;;5066063;28;20043;-57
2023/06/18 12:07:19;;;;;;;7.20;6.18;;;28.80;77.10;;;;;;5064674;28;20040;-58
2023/06/18 12:09:46;;;;;;;7.35;6.40;;;28.80;78.00;;;;;;5063023;28;20068;-58
2023/06/18 12:12:28;;;;;;;10.60;7.15;;;28.90;78.10;;;;;;5058925;28;20048;-57
2023/06/18 12:15:16;;;;;;;10.20;6.00;;;29.00;78.10;;;;;;5059660;28;20603;-56
2023/06/18 12:17:52;;;;;;;9.48;7.07;;;29.10;78.70;;;;;;5072806;28;20052;-58
2023/06/18 12:20:20;;;;;;;9.00;6.50;;;29.20;78.20;;;;;;5068034;28;20118;-58
2023/06/18 12:22:47;;;;;;;7.72;6.80;;;29.20;78.00;;;;;;5067924;28;20063;-57
2023/06/18 12:25:13;;;;;;;10.68;7.22;;;29.20;77.40;;;;;;5066274;28;20072;-57
2023/06/18 12:27:41;;;;;;;8.98;6.50;;;29.20;77.80;;;;;;5068871;28;20477;-56
2023/06/18 12:30:08;;;;;;;9.70;5.80;;;29.20;78.20;;;;;;5059708;28;20041;-57
2023/06/18 12:32:36;;;;;;;8.05;5.53;;;29.30;76.50;;;;;;5062683;28;20040;-57